sensor_id;sensor_type;location;lat;lon;timestamp;temperature;humidity
17591;DHT22;8914;50.070;8.226;2023-07-22T00:00:19;17.90;99.90
17591;DHT22;8914;50.070;8.226;2023-07-22T00:02:49;17.90;99.90
17591;DHT22;8914;50.070;8.226;2023-07-22T00:05:19;17.80;99.90
17591;DHT22;8914;50.070;8.226;2023-07-22T00:07:52;17.80;99.90
17591;DHT22;8914;50.070;8.226;2023-07-22T00:10:22;17.80;99.90
17591;DHT22;8914;50.070;8.226;2023-07-22T00:12:52;17.80;99.90
17591;DHT22;8914;50.070;8.226;2023-07-22T00:15:21;17.80;99.90
17591;DHT22;8914;50.070;8.226;2023-07-22T00:17:51;17.70;99.90
17591;DHT22;8914;50.070;8.226;2023-07-22T00:20:22;17.80;99.90
17591;DHT22;8914;50.070;8.226;2023-07-22T00:22:54;17.70;99.90
17591;DHT22;8914;50.070;8.226;2023-07-22T00:25:24;17.60;99.90
17591;DHT22;8914;50.070;8.226;2023-07-22T00:27:54;17.60;99.90
17591;DHT22;8914;50.070;8.226;2023-07-22T00:30:23;17.60;99.90
17591;DHT22;8914;50.070;8.226;2023-07-22T00:32:55;17.50;99.90
17591;DHT22;8914;50.070;8.226;2023-07-22T00:35:24;17.50;99.90
17591;DHT22;8914;50.070;8.226;2023-07-22T00:37:56;17.40;99.90
17591;DHT22;8914;50.070;8.226;2023-07-22T00:40:26;17.30;99.90
17591;DHT22;8914;50.070;8.226;2023-07-22T00:42:57;17.20;99.90
17591;DHT22;8914;50.070;8.226;2023-07-22T00:45:27;17.10;99.90
17591;DHT22;8914;50.070;8.226;2023-07-22T00:47:56;17.10;99.90
17591;DHT22;8914;50.070;8.226;2023-07-22T00:50:26;17.10;99.90
17591;DHT22;8914;50.070;8.226;2023-07-22T00:52:58;17.10;99.90
17591;DHT22;8914;50.070;8.226;2023-07-22T00:55:28;17.10;99.90
17591;DHT22;8914;50.070;8.226;2023-07-22T00:57:58;17.00;99.90
17591;DHT22;8914;50.070;8.226;2023-07-22T01:00:27;17.00;99.90
17591;DHT22;8914;50.070;8.226;2023-07-22T01:02:58;17.00;99.90
17591;DHT22;8914;50.070;8.226;2023-07-22T01:05:28;16.90;99.90
17591;DHT22;8914;50.070;8.226;2023-07-22T01:08:01;17.00;99.90
17591;DHT22;8914;50.070;8.226;2023-07-22T01:10:31;16.90;99.90
17591;DHT22;8914;50.070;8.226;2023-07-22T01:13:00;16.90;99.90
17591;DHT22;8914;50.070;8.226;2023-07-22T01:15:31;16.90;99.90
17591;DHT22;8914;50.070;8.226;2023-07-22T01:18:00;16.90;99.90
17591;DHT22;8914;50.070;8.226;2023-07-22T01:20:32;17.00;99.90
17591;DHT22;8914;50.070;8.226;2023-07-22T01:23:04;16.90;99.90
17591;DHT22;8914;50.070;8.226;2023-07-22T01:25:33;16.90;99.90
17591;DHT22;8914;50.070;8.226;2023-07-22T01:28:03;16.90;99.90
17591;DHT22;8914;50.070;8.226;2023-07-22T01:30:38;16.90;99.90
17591;DHT22;8914;50.070;8.226;2023-07-22T01:33:07;16.90;99.90
17591;DHT22;8914;50.070;8.226;2023-07-22T01:35:38;16.90;99.90
17591;DHT22;8914;50.070;8.226;2023-07-22T01:38:10;16.90;99.90
17591;DHT22;8914;50.070;8.226;2023-07-22T01:40:40;16.80;99.90
17591;DHT22;8914;50.070;8.226;2023-07-22T01:43:09;16.80;99.90
17591;DHT22;8914;50.070;8.226;2023-07-22T01:45:39;16.80;99.90
17591;DHT22;8914;50.070;8.226;2023-07-22T01:48:09;16.40;99.90
17591;DHT22;8914;50.070;8.226;2023-07-22T01:50:38;16.70;99.90
17591;DHT22;8914;50.070;8.226;2023-07-22T01:53:10;16.70;99.90
17591;DHT22;8914;50.070;8.226;2023-07-22T01:55:40;16.70;99.90
17591;DHT22;8914;50.070;8.226;2023-07-22T01:58:10;16.70;99.90
17591;DHT22;8914;50.070;8.226;2023-07-22T02:00:40;16.70;99.90
17591;DHT22;8914;50.070;8.226;2023-07-22T02:03:10;16.70;99.90
17591;DHT22;8914;50.070;8.226;2023-07-22T02:05:40;16.60;99.90
17591;DHT22;8914;50.070;8.226;2023-07-22T02:08:12;16.60;99.90
17591;DHT22;8914;50.070;8.226;2023-07-22T02:10:42;16.60;99.90
17591;DHT22;8914;50.070;8.226;2023-07-22T02:13:11;16.60;99.90
17591;DHT22;8914;50.070;8.226;2023-07-22T02:15:41;16.60;99.90
17591;DHT22;8914;50.070;8.226;2023-07-22T02:18:11;16.60;99.90
17591;DHT22;8914;50.070;8.226;2023-07-22T02:20:42;16.50;99.90
17591;DHT22;8914;50.070;8.226;2023-07-22T02:23:14;16.50;99.90
17591;DHT22;8914;50.070;8.226;2023-07-22T02:25:48;16.50;99.90
17591;DHT22;8914;50.070;8.226;2023-07-22T02:28:17;16.50;99.90
17591;DHT22;8914;50.070;8.226;2023-07-22T02:30:48;16.50;99.90
17591;DHT22;8914;50.070;8.226;2023-07-22T02:33:19;16.40;99.90
17591;DHT22;8914;50.070;8.226;2023-07-22T02:35:49;16.40;99.90
17591;DHT22;8914;50.070;8.226;2023-07-22T02:38:21;16.40;99.90
17591;DHT22;8914;50.070;8.226;2023-07-22T02:40:51;16.40;99.90
17591;DHT22;8914;50.070;8.226;2023-07-22T02:43:21;16.40;99.90
17591;DHT22;8914;50.070;8.226;2023-07-22T02:45:52;16.40;99.90
17591;DHT22;8914;50.070;8.226;2023-07-22T02:48:22;16.40;99.90
17591;DHT22;8914;50.070;8.226;2023-07-22T02:50:52;16.40;99.90
17591;DHT22;8914;50.070;8.226;2023-07-22T02:53:24;16.40;99.90
17591;DHT22;8914;50.070;8.226;2023-07-22T02:55:54;16.30;99.90
17591;DHT22;8914;50.070;8.226;2023-07-22T02:58:23;16.30;99.90
